Lytle Creek, California
Current Conditions -  °F | °C
As of 12:53 PM on Tuesday 27 Jan 2015 (Local Time) from KONT Reporting Station
Scattered Clouds Scattered Clouds  
Wind Chill: 69°   Ceiling: Unl
Heat Index: 69°   Visibility: 10mi
Dew Point: 46°   Wind: 3mph
Humidity: 44%   Direction: NA
Pressure: 30.15"   Gusts: NA
Location:  34.26°N, 117.5°W
Report Text: KONT 272053Z VRB03KT 10SM FEW070 SCT250 21/08 A3015 RMK AO2 SLP203 FU SW T02060078 58018
Loading
Personal Weather Stations






























Interactive Weather Map New forecast layout! Learn more

10-Day Weather Forecast

Advertisements
Track Severe Weather on mobile